THA1123 VTCC-VTBS
Flight info
| Callsign | THA1123 |
|---|---|
| Flight time | 0h 59m |
| Altitude | 33000 |
| Route | PANTA2C PANTA Y7 BLAFF NORTA1C |
| Aircraft | A320/M-SDE3FGHIRWY/LB1 |
Departure
| Time | 2026-05-06 02:38 |
|---|---|
| Airport | Chiang Mai International Airport (VTCC) |
Arrival
| Time | 2026-05-06 03:37 |
|---|---|
| Airport | Suvarnabhumi Airport (VTBS) |
| Time | Latitude | Longitude | Altitude | Speed | Heading |
|---|---|---|---|---|---|
| 2026-05-06 02:28 | 18.76908 | 98.96739 | 1032 ft | 0 kts | 90° |
| 2026-05-06 02:29 | 18.76908 | 98.96725 | 1031 ft | 2 kts | 90° |
| 2026-05-06 02:29 | 18.76908 | 98.96707 | 1031 ft | 2 kts | 89° |
| 2026-05-06 02:30 | 18.76908 | 98.96690 | 1031 ft | 2 kts | 95° |
| 2026-05-06 02:30 | 18.76910 | 98.96673 | 1031 ft | 2 kts | 104° |
| 2026-05-06 02:30 | 18.76915 | 98.96656 | 1032 ft | 2 kts | 125° |
| 2026-05-06 02:30 | 18.76927 | 98.96646 | 1032 ft | 2 kts | 184° |
| 2026-05-06 02:31 | 18.76944 | 98.96647 | 1031 ft | 2 kts | 177° |
| 2026-05-06 02:31 | 18.76956 | 98.96646 | 1032 ft | 1 kts | 175° |
| 2026-05-06 02:31 | 18.76949 | 98.96646 | 1032 ft | 2 kts | 176° |
| 2026-05-06 02:32 | 18.76931 | 98.96647 | 1032 ft | 3 kts | 179° |
| 2026-05-06 02:32 | 18.76902 | 98.96647 | 1032 ft | 5 kts | 180° |
| 2026-05-06 02:32 | 18.76861 | 98.96647 | 1032 ft | 7 kts | 180° |
| 2026-05-06 02:32 | 18.76809 | 98.96647 | 1032 ft | 8 kts | 180° |
| 2026-05-06 02:33 | 18.76747 | 98.96641 | 1032 ft | 10 kts | 203° |
| 2026-05-06 02:33 | 18.76727 | 98.96600 | 1032 ft | 10 kts | 271° |
| 2026-05-06 02:33 | 18.76608 | 98.96517 | 1032 ft | 13 kts | 180° |
| 2026-05-06 02:34 | 18.76544 | 98.96517 | 1032 ft | 14 kts | 180° |
| 2026-05-06 02:34 | 18.76439 | 98.96516 | 1032 ft | 16 kts | 180° |
| 2026-05-06 02:34 | 18.76324 | 98.96516 | 1032 ft | 16 kts | 180° |
| 2026-05-06 02:34 | 18.76210 | 98.96516 | 1032 ft | 17 kts | 180° |
| 2026-05-06 02:35 | 18.76083 | 98.96515 | 1032 ft | 19 kts | 180° |
| 2026-05-06 02:35 | 18.75944 | 98.96515 | 1032 ft | 21 kts | 179° |
| 2026-05-06 02:35 | 18.75793 | 98.96515 | 1032 ft | 18 kts | 180° |
| 2026-05-06 02:35 | 18.75630 | 98.96515 | 1032 ft | 19 kts | 180° |
| 2026-05-06 02:36 | 18.75561 | 98.96507 | 1032 ft | 14 kts | 205° |
| 2026-05-06 02:36 | 18.75544 | 98.96413 | 1032 ft | 15 kts | 272° |
| 2026-05-06 02:36 | 18.75555 | 98.96303 | 1032 ft | 16 kts | 311° |
| 2026-05-06 02:36 | 18.75638 | 98.96286 | 1032 ft | 0 kts | 0° |
| 2026-05-06 02:37 | 18.75688 | 98.96286 | 1032 ft | 26 kts | 0° |
| 2026-05-06 02:37 | 18.76101 | 98.96287 | 1032 ft | 90 kts | 0° |
| 2026-05-06 02:37 | 18.76906 | 98.96289 | 1032 ft | 139 kts | 0° |
| 2026-05-06 02:37 | 18.77993 | 98.96292 | 1053 ft | 175 kts | 360° |
| 2026-05-06 02:38 | 18.79237 | 98.96297 | 1645 ft | 176 kts | 360° |
| 2026-05-06 02:38 | 18.80461 | 98.96294 | 2278 ft | 178 kts | 0° |
| 2026-05-06 02:38 | 18.81735 | 98.96298 | 2566 ft | 196 kts | 0° |
| 2026-05-06 02:38 | 18.83177 | 98.96305 | 2752 ft | 220 kts | 0° |
| 2026-05-06 02:39 | 18.84791 | 98.96310 | 3015 ft | 244 kts | 0° |
| 2026-05-06 02:39 | 18.86571 | 98.96315 | 3412 ft | 265 kts | 360° |
| 2026-05-06 02:39 | 18.88440 | 98.96319 | 4147 ft | 271 kts | 359° |
| 2026-05-06 02:39 | 18.90342 | 98.96323 | 4984 ft | 275 kts | 359° |
| 2026-05-06 02:40 | 18.92266 | 98.96327 | 5794 ft | 278 kts | 358° |
| 2026-05-06 02:40 | 18.94199 | 98.96567 | 6537 ft | 286 kts | 18° |
| 2026-05-06 02:40 | 18.95872 | 98.97711 | 7220 ft | 294 kts | 47° |
| 2026-05-06 02:40 | 18.96835 | 98.99613 | 7945 ft | 299 kts | 77° |
| 2026-05-06 02:41 | 18.96966 | 99.01809 | 8668 ft | 302 kts | 90° |
| 2026-05-06 02:41 | 18.96922 | 99.04040 | 9395 ft | 305 kts | 97° |
| 2026-05-06 02:41 | 18.96263 | 99.06161 | 10055 ft | 307 kts | 123° |
| 2026-05-06 02:41 | 18.94802 | 99.07782 | 10677 ft | 307 kts | 149° |
| 2026-05-06 02:42 | 18.92839 | 99.08596 | 11276 ft | 305 kts | 175° |
| 2026-05-06 02:42 | 18.90724 | 99.08669 | 11933 ft | 305 kts | 182° |
| 2026-05-06 02:42 | 18.88593 | 99.08655 | 12583 ft | 308 kts | 183° |
| 2026-05-06 02:42 | 18.86440 | 99.08636 | 13221 ft | 311 kts | 183° |
| 2026-05-06 02:43 | 18.84268 | 99.08618 | 13843 ft | 314 kts | 182° |
| 2026-05-06 02:43 | 18.82074 | 99.08605 | 14392 ft | 317 kts | 182° |
| 2026-05-06 02:43 | 18.79890 | 99.08596 | 14921 ft | 320 kts | 182° |
| 2026-05-06 02:43 | 18.77654 | 99.08589 | 15460 ft | 323 kts | 182° |
| 2026-05-06 02:44 | 18.75399 | 99.08583 | 15976 ft | 326 kts | 183° |
| 2026-05-06 02:44 | 18.73120 | 99.08574 | 16496 ft | 329 kts | 183° |
| 2026-05-06 02:44 | 18.70786 | 99.08561 | 16784 ft | 340 kts | 183° |
| 2026-05-06 02:44 | 18.68398 | 99.08549 | 17231 ft | 346 kts | 183° |
| 2026-05-06 02:45 | 18.65979 | 99.08541 | 17681 ft | 351 kts | 183° |
| 2026-05-06 02:45 | 18.63483 | 99.08532 | 17807 ft | 366 kts | 182° |
| 2026-05-06 02:45 | 18.60891 | 99.08524 | 17940 ft | 379 kts | 182° |
| 2026-05-06 02:45 | 18.58223 | 99.08514 | 18244 ft | 387 kts | 182° |
| 2026-05-06 02:46 | 18.55514 | 99.08504 | 18618 ft | 391 kts | 182° |
| 2026-05-06 02:46 | 18.52791 | 99.08665 | 19017 ft | 396 kts | 172° |
| 2026-05-06 02:46 | 18.50136 | 99.09511 | 19421 ft | 402 kts | 158° |
| 2026-05-06 02:46 | 18.47693 | 99.10976 | 19844 ft | 407 kts | 146° |
| 2026-05-06 02:47 | 18.45483 | 99.12864 | 20255 ft | 411 kts | 142° |
| 2026-05-06 02:47 | 18.43279 | 99.14788 | 20669 ft | 413 kts | 142° |
| 2026-05-06 02:47 | 18.41049 | 99.16711 | 21073 ft | 415 kts | 142° |
| 2026-05-06 02:47 | 18.38828 | 99.18614 | 21466 ft | 418 kts | 142° |
| 2026-05-06 02:48 | 18.36567 | 99.20545 | 21861 ft | 420 kts | 142° |
| 2026-05-06 02:48 | 18.34290 | 99.22492 | 22235 ft | 423 kts | 142° |
| 2026-05-06 02:48 | 18.32004 | 99.24453 | 22633 ft | 425 kts | 142° |
| 2026-05-06 02:48 | 18.29710 | 99.26428 | 23017 ft | 427 kts | 142° |
| 2026-05-06 02:49 | 18.27404 | 99.28415 | 23389 ft | 430 kts | 142° |
| 2026-05-06 02:49 | 18.25073 | 99.30397 | 23710 ft | 432 kts | 145° |
| 2026-05-06 02:49 | 18.22530 | 99.32070 | 24006 ft | 431 kts | 155° |
| 2026-05-06 02:49 | 18.19761 | 99.33265 | 24307 ft | 430 kts | 164° |
| 2026-05-06 02:50 | 18.16900 | 99.34209 | 24615 ft | 432 kts | 164° |
| 2026-05-06 02:50 | 18.14025 | 99.35163 | 24920 ft | 434 kts | 164° |
| 2026-05-06 02:50 | 18.11144 | 99.36123 | 25225 ft | 436 kts | 164° |
| 2026-05-06 02:50 | 18.08248 | 99.37094 | 25531 ft | 438 kts | 164° |
| 2026-05-06 02:51 | 18.05340 | 99.38070 | 25832 ft | 439 kts | 164° |
| 2026-05-06 02:51 | 18.02419 | 99.39049 | 26121 ft | 441 kts | 164° |
| 2026-05-06 02:51 | 17.99485 | 99.40028 | 26410 ft | 443 kts | 164° |
| 2026-05-06 02:51 | 17.96580 | 99.40999 | 26691 ft | 445 kts | 164° |
| 2026-05-06 02:52 | 17.93625 | 99.41987 | 26972 ft | 447 kts | 164° |
| 2026-05-06 02:52 | 17.90655 | 99.42980 | 27259 ft | 449 kts | 164° |
| 2026-05-06 02:52 | 17.87672 | 99.43978 | 27536 ft | 451 kts | 164° |
| 2026-05-06 02:52 | 17.84676 | 99.44974 | 27807 ft | 452 kts | 164° |
| 2026-05-06 02:53 | 17.81675 | 99.45972 | 28074 ft | 454 kts | 164° |
| 2026-05-06 02:53 | 17.78657 | 99.46976 | 28360 ft | 455 kts | 163° |
| 2026-05-06 02:53 | 17.75632 | 99.47982 | 28653 ft | 457 kts | 164° |
| 2026-05-06 02:53 | 17.72594 | 99.48993 | 28947 ft | 459 kts | 163° |
| 2026-05-06 02:54 | 17.69541 | 99.50011 | 29209 ft | 461 kts | 163° |
| 2026-05-06 02:54 | 17.66478 | 99.51032 | 29493 ft | 463 kts | 163° |
| 2026-05-06 02:54 | 17.63401 | 99.52056 | 29838 ft | 463 kts | 163° |
| 2026-05-06 02:54 | 17.60333 | 99.53075 | 30207 ft | 462 kts | 163° |
| 2026-05-06 02:55 | 17.57267 | 99.54094 | 30547 ft | 462 kts | 163° |
| 2026-05-06 02:55 | 17.54208 | 99.55111 | 30876 ft | 461 kts | 163° |
| 2026-05-06 02:55 | 17.51148 | 99.56129 | 31191 ft | 461 kts | 163° |
| 2026-05-06 02:55 | 17.48091 | 99.57144 | 31528 ft | 461 kts | 163° |
| 2026-05-06 02:56 | 17.45076 | 99.58146 | 31869 ft | 460 kts | 163° |
| 2026-05-06 02:56 | 17.42027 | 99.59161 | 32217 ft | 460 kts | 163° |
| 2026-05-06 02:56 | 17.38976 | 99.60171 | 32567 ft | 460 kts | 163° |
| 2026-05-06 02:56 | 17.35923 | 99.61179 | 32845 ft | 460 kts | 163° |
| 2026-05-06 02:57 | 17.32867 | 99.62187 | 32909 ft | 460 kts | 163° |
| 2026-05-06 02:57 | 17.26773 | 99.64210 | 32924 ft | 459 kts | 163° |
| 2026-05-06 02:58 | 17.20638 | 99.66244 | 32922 ft | 470 kts | 163° |
| 2026-05-06 02:58 | 17.14308 | 99.68342 | 32921 ft | 484 kts | 163° |
| 2026-05-06 02:59 | 17.07807 | 99.70493 | 32915 ft | 493 kts | 163° |
| 2026-05-06 02:59 | 17.01257 | 99.72659 | 32915 ft | 494 kts | 163° |
| 2026-05-06 03:00 | 16.94701 | 99.74819 | 32910 ft | 494 kts | 163° |
| 2026-05-06 03:00 | 16.88176 | 99.76967 | 32911 ft | 495 kts | 163° |
| 2026-05-06 03:01 | 16.81611 | 99.79126 | 32912 ft | 495 kts | 163° |
| 2026-05-06 03:01 | 16.75051 | 99.81292 | 32906 ft | 495 kts | 163° |
| 2026-05-06 03:02 | 16.68484 | 99.83458 | 32904 ft | 495 kts | 163° |
| 2026-05-06 03:02 | 16.61919 | 99.85619 | 32910 ft | 495 kts | 163° |
| 2026-05-06 03:03 | 16.55352 | 99.87776 | 32910 ft | 495 kts | 163° |
| 2026-05-06 03:03 | 16.48786 | 99.89932 | 32913 ft | 495 kts | 163° |
| 2026-05-06 03:04 | 16.42225 | 99.92094 | 32911 ft | 495 kts | 163° |
| 2026-05-06 03:04 | 16.35709 | 99.94234 | 32913 ft | 494 kts | 163° |
| 2026-05-06 03:05 | 16.29150 | 99.96384 | 32916 ft | 494 kts | 163° |
| 2026-05-06 03:05 | 16.22593 | 99.98548 | 32915 ft | 494 kts | 163° |
| 2026-05-06 03:06 | 16.16043 | 100.00714 | 32915 ft | 494 kts | 163° |
| 2026-05-06 03:06 | 16.09493 | 100.02874 | 32911 ft | 494 kts | 163° |
| 2026-05-06 03:07 | 16.02940 | 100.05040 | 32907 ft | 494 kts | 163° |
| 2026-05-06 03:07 | 15.96386 | 100.07196 | 32910 ft | 494 kts | 163° |
| 2026-05-06 03:08 | 15.89837 | 100.09346 | 32909 ft | 494 kts | 163° |
| 2026-05-06 03:08 | 15.83281 | 100.11499 | 32909 ft | 494 kts | 163° |
| 2026-05-06 03:09 | 15.76726 | 100.13651 | 32910 ft | 494 kts | 163° |
| 2026-05-06 03:09 | 15.70171 | 100.15804 | 32909 ft | 494 kts | 163° |
| 2026-05-06 03:10 | 15.63650 | 100.17949 | 32907 ft | 481 kts | 163° |
| 2026-05-06 03:10 | 15.60516 | 100.18978 | 32909 ft | 465 kts | 163° |
| 2026-05-06 03:10 | 15.57460 | 100.19978 | 32912 ft | 457 kts | 163° |
| 2026-05-06 03:11 | 15.51405 | 100.21960 | 32865 ft | 458 kts | 163° |
| 2026-05-06 03:11 | 15.48397 | 100.22945 | 32134 ft | 462 kts | 163° |
| 2026-05-06 03:11 | 15.45290 | 100.23963 | 31425 ft | 463 kts | 163° |
| 2026-05-06 03:11 | 15.42272 | 100.24952 | 31001 ft | 457 kts | 163° |
| 2026-05-06 03:12 | 15.39248 | 100.25943 | 30455 ft | 454 kts | 162° |
| 2026-05-06 03:12 | 15.36275 | 100.26917 | 29859 ft | 443 kts | 162° |
| 2026-05-06 03:12 | 15.33373 | 100.27866 | 29340 ft | 431 kts | 162° |
| 2026-05-06 03:12 | 15.30545 | 100.28791 | 28880 ft | 424 kts | 162° |
| 2026-05-06 03:13 | 15.27770 | 100.29795 | 28430 ft | 420 kts | 156° |
| 2026-05-06 03:13 | 15.25212 | 100.31211 | 27992 ft | 416 kts | 149° |
| 2026-05-06 03:13 | 15.22739 | 100.32738 | 27568 ft | 412 kts | 149° |
| 2026-05-06 03:13 | 15.20287 | 100.34250 | 27155 ft | 408 kts | 149° |
| 2026-05-06 03:14 | 15.17852 | 100.35743 | 26740 ft | 405 kts | 149° |
| 2026-05-06 03:14 | 15.15432 | 100.37222 | 26333 ft | 403 kts | 149° |
| 2026-05-06 03:14 | 15.13028 | 100.38694 | 25934 ft | 400 kts | 149° |
| 2026-05-06 03:14 | 15.10635 | 100.40161 | 25514 ft | 399 kts | 149° |
| 2026-05-06 03:15 | 15.08257 | 100.41618 | 25094 ft | 397 kts | 149° |
| 2026-05-06 03:15 | 15.05887 | 100.43074 | 24672 ft | 395 kts | 149° |
| 2026-05-06 03:15 | 15.03527 | 100.44524 | 24235 ft | 394 kts | 149° |
| 2026-05-06 03:15 | 15.01175 | 100.45969 | 23804 ft | 393 kts | 149° |
| 2026-05-06 03:16 | 14.98825 | 100.47412 | 23328 ft | 393 kts | 149° |
| 2026-05-06 03:16 | 14.96481 | 100.48848 | 22845 ft | 391 kts | 149° |
| 2026-05-06 03:16 | 14.94147 | 100.50275 | 22386 ft | 388 kts | 149° |
| 2026-05-06 03:16 | 14.91832 | 100.51690 | 21939 ft | 385 kts | 149° |
| 2026-05-06 03:17 | 14.89532 | 100.53095 | 21480 ft | 383 kts | 149° |
| 2026-05-06 03:17 | 14.87247 | 100.54490 | 21024 ft | 381 kts | 149° |
| 2026-05-06 03:17 | 14.85004 | 100.55860 | 20586 ft | 378 kts | 149° |
| 2026-05-06 03:17 | 14.82746 | 100.57242 | 20129 ft | 376 kts | 149° |
| 2026-05-06 03:18 | 14.80495 | 100.58619 | 19675 ft | 375 kts | 149° |
| 2026-05-06 03:18 | 14.78255 | 100.59991 | 19223 ft | 374 kts | 149° |
| 2026-05-06 03:18 | 14.76022 | 100.61363 | 18777 ft | 372 kts | 149° |
| 2026-05-06 03:18 | 14.73797 | 100.62729 | 18327 ft | 372 kts | 149° |
| 2026-05-06 03:19 | 14.71514 | 100.63965 | 17832 ft | 370 kts | 159° |
| 2026-05-06 03:19 | 14.69083 | 100.64747 | 17633 ft | 360 kts | 163° |
| 2026-05-06 03:19 | 14.66704 | 100.65466 | 17325 ft | 354 kts | 163° |
| 2026-05-06 03:19 | 14.64352 | 100.66188 | 16934 ft | 351 kts | 163° |
| 2026-05-06 03:20 | 14.59730 | 100.67626 | 16327 ft | 344 kts | 163° |
| 2026-05-06 03:20 | 14.57449 | 100.68338 | 16033 ft | 341 kts | 163° |
| 2026-05-06 03:20 | 14.55213 | 100.69032 | 15741 ft | 339 kts | 163° |
| 2026-05-06 03:21 | 14.52955 | 100.69727 | 15446 ft | 338 kts | 163° |
| 2026-05-06 03:21 | 14.50711 | 100.70415 | 15157 ft | 336 kts | 163° |
| 2026-05-06 03:21 | 14.48473 | 100.71102 | 14855 ft | 334 kts | 163° |
| 2026-05-06 03:21 | 14.46248 | 100.71737 | 14642 ft | 329 kts | 169° |
| 2026-05-06 03:22 | 14.43982 | 100.71907 | 14324 ft | 327 kts | 183° |
| 2026-05-06 03:22 | 14.41752 | 100.71511 | 14020 ft | 325 kts | 194° |
| 2026-05-06 03:22 | 14.39576 | 100.70927 | 13736 ft | 322 kts | 194° |
| 2026-05-06 03:22 | 14.37416 | 100.70351 | 13439 ft | 319 kts | 194° |
| 2026-05-06 03:23 | 14.35273 | 100.69784 | 13164 ft | 317 kts | 194° |
| 2026-05-06 03:23 | 14.33145 | 100.69221 | 12880 ft | 315 kts | 194° |
| 2026-05-06 03:23 | 14.31025 | 100.68662 | 12612 ft | 314 kts | 193° |
| 2026-05-06 03:23 | 14.28917 | 100.68108 | 12342 ft | 312 kts | 193° |
| 2026-05-06 03:24 | 14.26819 | 100.67555 | 12074 ft | 310 kts | 194° |
| 2026-05-06 03:24 | 14.24731 | 100.67003 | 11805 ft | 309 kts | 193° |
| 2026-05-06 03:24 | 14.22654 | 100.66454 | 11531 ft | 307 kts | 193° |
| 2026-05-06 03:24 | 14.20586 | 100.65910 | 11261 ft | 306 kts | 193° |
| 2026-05-06 03:25 | 14.18532 | 100.65371 | 11054 ft | 304 kts | 193° |
| 2026-05-06 03:25 | 14.16485 | 100.64834 | 10828 ft | 303 kts | 193° |
| 2026-05-06 03:25 | 14.14444 | 100.64296 | 10568 ft | 302 kts | 193° |
| 2026-05-06 03:25 | 14.12412 | 100.63760 | 10303 ft | 300 kts | 193° |
| 2026-05-06 03:26 | 14.10419 | 100.63237 | 10041 ft | 299 kts | 193° |
| 2026-05-06 03:26 | 14.08410 | 100.62709 | 9774 ft | 298 kts | 193° |
| 2026-05-06 03:26 | 14.06410 | 100.62181 | 9493 ft | 296 kts | 193° |
| 2026-05-06 03:26 | 14.04422 | 100.61658 | 9266 ft | 293 kts | 193° |
| 2026-05-06 03:27 | 14.02475 | 100.61169 | 9146 ft | 283 kts | 188° |
| 2026-05-06 03:27 | 14.00578 | 100.61324 | 9021 ft | 271 kts | 157° |
| 2026-05-06 03:27 | 13.99102 | 100.62420 | 8896 ft | 260 kts | 126° |
| 2026-05-06 03:27 | 13.98351 | 100.64081 | 8599 ft | 258 kts | 104° |
| 2026-05-06 03:28 | 13.97902 | 100.65857 | 8321 ft | 257 kts | 104° |
| 2026-05-06 03:28 | 13.97453 | 100.67625 | 8093 ft | 254 kts | 104° |
| 2026-05-06 03:28 | 13.97054 | 100.69390 | 7755 ft | 252 kts | 94° |
| 2026-05-06 03:28 | 13.97374 | 100.71125 | 7423 ft | 248 kts | 61° |
| 2026-05-06 03:29 | 13.98540 | 100.72392 | 7124 ft | 246 kts | 29° |
| 2026-05-06 03:29 | 14.00176 | 100.72907 | 6825 ft | 249 kts | 12° |
| 2026-05-06 03:29 | 14.01857 | 100.73330 | 6535 ft | 248 kts | 24° |
| 2026-05-06 03:29 | 14.03169 | 100.74401 | 6250 ft | 242 kts | 58° |
| 2026-05-06 03:30 | 14.03738 | 100.75999 | 5968 ft | 239 kts | 87° |
| 2026-05-06 03:30 | 14.03501 | 100.77672 | 5704 ft | 238 kts | 105° |
| 2026-05-06 03:30 | 14.03062 | 100.79294 | 5445 ft | 238 kts | 106° |
| 2026-05-06 03:30 | 14.02616 | 100.80931 | 5181 ft | 237 kts | 105° |
| 2026-05-06 03:31 | 14.02089 | 100.82537 | 5044 ft | 246 kts | 120° |
| 2026-05-06 03:31 | 14.00798 | 100.83783 | 5026 ft | 267 kts | 155° |
| 2026-05-06 03:31 | 13.98962 | 100.84048 | 5028 ft | 273 kts | 188° |
| 2026-05-06 03:31 | 13.97116 | 100.83541 | 5027 ft | 276 kts | 197° |
| 2026-05-06 03:32 | 13.95273 | 100.82973 | 4940 ft | 277 kts | 194° |
| 2026-05-06 03:32 | 13.93411 | 100.82473 | 4646 ft | 276 kts | 193° |
| 2026-05-06 03:32 | 13.91550 | 100.81991 | 4294 ft | 276 kts | 193° |
| 2026-05-06 03:32 | 13.90314 | 100.81668 | 4059 ft | 277 kts | 193° |
| 2026-05-06 03:33 | 13.88447 | 100.81176 | 3698 ft | 275 kts | 193° |
| 2026-05-06 03:33 | 13.86032 | 100.80540 | 3250 ft | 261 kts | 194° |
| 2026-05-06 03:33 | 13.84883 | 100.80237 | 3034 ft | 255 kts | 194° |
| 2026-05-06 03:33 | 13.83201 | 100.79794 | 2713 ft | 242 kts | 194° |
| 2026-05-06 03:34 | 13.81640 | 100.79383 | 2417 ft | 221 kts | 194° |
| 2026-05-06 03:34 | 13.80201 | 100.79005 | 2147 ft | 210 kts | 194° |
| 2026-05-06 03:34 | 13.78824 | 100.78642 | 1901 ft | 194 kts | 194° |
| 2026-05-06 03:34 | 13.77575 | 100.78314 | 1646 ft | 177 kts | 194° |
| 2026-05-06 03:35 | 13.76431 | 100.78013 | 1457 ft | 161 kts | 194° |
| 2026-05-06 03:35 | 13.75384 | 100.77737 | 1234 ft | 152 kts | 194° |
| 2026-05-06 03:35 | 13.74373 | 100.77472 | 1040 ft | 148 kts | 194° |
| 2026-05-06 03:35 | 13.73377 | 100.77210 | 863 ft | 147 kts | 194° |
| 2026-05-06 03:36 | 13.72391 | 100.76949 | 703 ft | 146 kts | 194° |
| 2026-05-06 03:36 | 13.71415 | 100.76691 | 502 ft | 144 kts | 193° |
| 2026-05-06 03:36 | 13.70453 | 100.76438 | 316 ft | 143 kts | 193° |
| 2026-05-06 03:36 | 13.69494 | 100.76188 | 125 ft | 142 kts | 193° |
| 2026-05-06 03:37 | 13.68570 | 100.75944 | 18 ft | 128 kts | 194° |
| 2026-05-06 03:37 | 13.67854 | 100.75758 | 11 ft | 82 kts | 194° |
| 2026-05-06 03:37 | 13.67400 | 100.75639 | 13 ft | 60 kts | 194° |
| 2026-05-06 03:37 | 13.67128 | 100.75480 | 13 ft | 24 kts | 238° |
| 2026-05-06 03:38 | 13.67127 | 100.75377 | 13 ft | 15 kts | 348° |
| 2026-05-06 03:38 | 13.67233 | 100.75403 | 13 ft | 17 kts | 15° |
| 2026-05-06 03:38 | 13.67353 | 100.75435 | 13 ft | 19 kts | 14° |
| 2026-05-06 03:38 | 13.67485 | 100.75470 | 13 ft | 21 kts | 14° |
| 2026-05-06 03:39 | 13.67630 | 100.75509 | 13 ft | 22 kts | 14° |
| 2026-05-06 03:39 | 13.67757 | 100.75542 | 13 ft | 19 kts | 14° |
| 2026-05-06 03:39 | 13.67893 | 100.75577 | 13 ft | 21 kts | 14° |
| 2026-05-06 03:39 | 13.68028 | 100.75613 | 13 ft | 19 kts | 14° |
| 2026-05-06 03:40 | 13.68162 | 100.75648 | 13 ft | 21 kts | 14° |
| 2026-05-06 03:40 | 13.68308 | 100.75686 | 13 ft | 23 kts | 14° |
| 2026-05-06 03:40 | 13.68422 | 100.75711 | 13 ft | 11 kts | 351° |
| 2026-05-06 03:40 | 13.68459 | 100.75643 | 13 ft | 13 kts | 284° |
| 2026-05-06 03:41 | 13.68482 | 100.75548 | 13 ft | 15 kts | 284° |
| 2026-05-06 03:41 | 13.68513 | 100.75458 | 13 ft | 13 kts | 314° |
| 2026-05-06 03:41 | 13.68603 | 100.75463 | 13 ft | 14 kts | 15° |
| 2026-05-06 03:41 | 13.68621 | 100.75454 | 15 ft | 3 kts | 284° |
| 2026-05-06 03:42 | 13.68626 | 100.75428 | 13 ft | 5 kts | 279° |
| 2026-05-06 03:42 | 13.68636 | 100.75387 | 13 ft | 7 kts | 285° |
| 2026-05-06 03:42 | 13.68642 | 100.75366 | 13 ft | 0 kts | 284° |